UAL2005 KPNS-KORD
Flight info
| Callsign | UAL2005 |
|---|---|
| Flight time | 2h 2m |
| Altitude | 38000 |
| Route | CEW PIGON VLKNN/N0458F370 Q139 IIU HEVAN/N0454F380 BONNT VEECK5 |
| Aircraft | B737/M-SDE2E3FGHIRWXY/LB1 |
Departure
| Time | 2026-04-22 21:45 |
|---|---|
| Airport | Pensacola International Airport (KPNS) |
Arrival
| Time | 2026-04-22 23:47 |
|---|---|
| Airport | Chicago O'Hare International Airport (KORD) |
| Time | Latitude | Longitude | Altitude | Speed | Heading |
|---|---|---|---|---|---|
| 2026-04-22 21:29 | 30.47522 | -87.19354 | 123 ft | 0 kts | 27° |
| 2026-04-22 21:29 | 30.47522 | -87.19355 | 123 ft | 0 kts | 27° |
| 2026-04-22 21:30 | 30.47521 | -87.19355 | 123 ft | 0 kts | 27° |
| 2026-04-22 21:38 | 30.47517 | -87.19357 | 126 ft | 4 kts | 27° |
| 2026-04-22 21:38 | 30.47493 | -87.19372 | 133 ft | 4 kts | 27° |
| 2026-04-22 21:38 | 30.47475 | -87.19382 | 122 ft | 4 kts | 82° |
| 2026-04-22 21:39 | 30.47473 | -87.19393 | 124 ft | 4 kts | 84° |
| 2026-04-22 21:39 | 30.47472 | -87.19402 | 122 ft | 1 kts | 84° |
| 2026-04-22 21:41 | 30.47471 | -87.19399 | 124 ft | 1 kts | 94° |
| 2026-04-22 21:41 | 30.47460 | -87.19358 | 122 ft | 10 kts | 108° |
| 2026-04-22 21:41 | 30.47423 | -87.19288 | 124 ft | 11 kts | 132° |
| 2026-04-22 21:41 | 30.47387 | -87.19293 | 124 ft | 6 kts | 202° |
| 2026-04-22 21:42 | 30.47347 | -87.19278 | 124 ft | 7 kts | 135° |
| 2026-04-22 21:42 | 30.47340 | -87.19220 | 126 ft | 8 kts | 76° |
| 2026-04-22 21:42 | 30.47354 | -87.19145 | 125 ft | 11 kts | 77° |
| 2026-04-22 21:42 | 30.47374 | -87.19041 | 126 ft | 15 kts | 77° |
| 2026-04-22 21:43 | 30.47456 | -87.19002 | 124 ft | 16 kts | 346° |
| 2026-04-22 21:43 | 30.47571 | -87.19035 | 125 ft | 18 kts | 346° |
| 2026-04-22 21:43 | 30.47705 | -87.19069 | 124 ft | 21 kts | 348° |
| 2026-04-22 21:43 | 30.47855 | -87.19109 | 126 ft | 23 kts | 346° |
| 2026-04-22 21:44 | 30.48008 | -87.19151 | 124 ft | 22 kts | 347° |
| 2026-04-22 21:44 | 30.48155 | -87.19189 | 125 ft | 22 kts | 347° |
| 2026-04-22 21:44 | 30.48265 | -87.19143 | 128 ft | 19 kts | 73° |
| 2026-04-22 21:44 | 30.48276 | -87.19058 | 128 ft | 4 kts | 120° |
| 2026-04-22 21:45 | 30.48272 | -87.19058 | 128 ft | 0 kts | 165° |
| 2026-04-22 21:45 | 30.48097 | -87.19011 | 129 ft | 68 kts | 168° |
| 2026-04-22 21:45 | 30.47361 | -87.18820 | 166 ft | 141 kts | 167° |
| 2026-04-22 21:45 | 30.46304 | -87.18558 | 750 ft | 166 kts | 168° |
| 2026-04-22 21:46 | 30.45129 | -87.18242 | 1550 ft | 182 kts | 168° |
| 2026-04-22 21:46 | 30.43875 | -87.17929 | 2496 ft | 187 kts | 169° |
| 2026-04-22 21:46 | 30.42621 | -87.17362 | 3039 ft | 205 kts | 144° |
| 2026-04-22 21:46 | 30.41698 | -87.16042 | 3652 ft | 221 kts | 119° |
| 2026-04-22 21:47 | 30.41206 | -87.14221 | 3963 ft | 257 kts | 97° |
| 2026-04-22 21:47 | 30.41483 | -87.12152 | 4770 ft | 270 kts | 66° |
| 2026-04-22 21:47 | 30.42652 | -87.10459 | 5879 ft | 272 kts | 44° |
| 2026-04-22 21:47 | 30.44064 | -87.09029 | 7006 ft | 267 kts | 43° |
| 2026-04-22 21:48 | 30.45482 | -87.07612 | 7868 ft | 274 kts | 43° |
| 2026-04-22 21:48 | 30.46943 | -87.06108 | 8557 ft | 285 kts | 43° |
| 2026-04-22 21:48 | 30.48433 | -87.04555 | 9439 ft | 290 kts | 42° |
| 2026-04-22 21:48 | 30.49948 | -87.02962 | 10229 ft | 297 kts | 42° |
| 2026-04-22 21:49 | 30.51504 | -87.01318 | 10613 ft | 319 kts | 41° |
| 2026-04-22 21:49 | 30.53215 | -86.99511 | 10812 ft | 345 kts | 41° |
| 2026-04-22 21:49 | 30.55064 | -86.97563 | 11000 ft | 369 kts | 41° |
| 2026-04-22 21:49 | 30.57019 | -86.95498 | 11265 ft | 388 kts | 40° |
| 2026-04-22 21:50 | 30.59008 | -86.93381 | 12005 ft | 394 kts | 40° |
| 2026-04-22 21:50 | 30.61033 | -86.91214 | 12829 ft | 397 kts | 40° |
| 2026-04-22 21:50 | 30.63089 | -86.89006 | 13510 ft | 405 kts | 40° |
| 2026-04-22 21:50 | 30.65170 | -86.86763 | 14181 ft | 409 kts | 40° |
| 2026-04-22 21:51 | 30.67245 | -86.84527 | 14797 ft | 413 kts | 40° |
| 2026-04-22 21:51 | 30.69357 | -86.82247 | 15450 ft | 416 kts | 40° |
| 2026-04-22 21:51 | 30.71489 | -86.79947 | 16095 ft | 420 kts | 40° |
| 2026-04-22 21:52 | 30.75823 | -86.75267 | 17364 ft | 428 kts | 40° |
| 2026-04-22 21:52 | 30.77993 | -86.72921 | 17949 ft | 432 kts | 40° |
| 2026-04-22 21:52 | 30.80238 | -86.70570 | 18512 ft | 434 kts | 35° |
| 2026-04-22 21:52 | 30.82831 | -86.68799 | 18999 ft | 432 kts | 19° |
| 2026-04-22 21:53 | 30.85706 | -86.67835 | 19557 ft | 429 kts | 6° |
| 2026-04-22 21:53 | 30.88685 | -86.67624 | 20087 ft | 429 kts | 358° |
| 2026-04-22 21:53 | 30.91680 | -86.67595 | 20578 ft | 432 kts | 358° |
| 2026-04-22 21:53 | 30.94665 | -86.67582 | 21036 ft | 434 kts | 358° |
| 2026-04-22 21:54 | 30.97696 | -86.67562 | 21505 ft | 437 kts | 358° |
| 2026-04-22 21:54 | 31.00750 | -86.67528 | 21941 ft | 440 kts | 358° |
| 2026-04-22 21:54 | 31.03833 | -86.67481 | 22366 ft | 443 kts | 359° |
| 2026-04-22 21:54 | 31.06932 | -86.67425 | 22785 ft | 446 kts | 359° |
| 2026-04-22 21:55 | 31.10012 | -86.67364 | 23187 ft | 448 kts | 359° |
| 2026-04-22 21:55 | 31.13151 | -86.67299 | 23581 ft | 451 kts | 359° |
| 2026-04-22 21:55 | 31.16305 | -86.67233 | 23925 ft | 454 kts | 359° |
| 2026-04-22 21:55 | 31.19474 | -86.67168 | 24235 ft | 456 kts | 359° |
| 2026-04-22 21:56 | 31.22619 | -86.67103 | 24540 ft | 459 kts | 359° |
| 2026-04-22 21:56 | 31.25827 | -86.67038 | 24832 ft | 461 kts | 359° |
| 2026-04-22 21:56 | 31.29060 | -86.66972 | 25152 ft | 463 kts | 359° |
| 2026-04-22 21:56 | 31.32252 | -86.66907 | 25466 ft | 465 kts | 359° |
| 2026-04-22 21:57 | 31.35498 | -86.66840 | 25763 ft | 467 kts | 359° |
| 2026-04-22 21:57 | 31.38764 | -86.66774 | 26054 ft | 469 kts | 359° |
| 2026-04-22 21:57 | 31.42042 | -86.66707 | 26401 ft | 470 kts | 359° |
| 2026-04-22 21:57 | 31.45270 | -86.66640 | 26826 ft | 468 kts | 359° |
| 2026-04-22 21:58 | 31.48550 | -86.66573 | 27155 ft | 469 kts | 359° |
| 2026-04-22 21:58 | 31.51824 | -86.66506 | 27523 ft | 469 kts | 359° |
| 2026-04-22 21:58 | 31.55097 | -86.66440 | 27903 ft | 469 kts | 359° |
| 2026-04-22 21:58 | 31.58322 | -86.66535 | 28320 ft | 467 kts | 355° |
| 2026-04-22 21:59 | 31.61565 | -86.66841 | 28740 ft | 466 kts | 353° |
| 2026-04-22 21:59 | 31.64794 | -86.67225 | 29262 ft | 464 kts | 352° |
| 2026-04-22 21:59 | 31.68010 | -86.67629 | 29757 ft | 463 kts | 352° |
| 2026-04-22 21:59 | 31.71179 | -86.68024 | 30232 ft | 463 kts | 353° |
| 2026-04-22 22:00 | 31.74387 | -86.68409 | 30652 ft | 461 kts | 353° |
| 2026-04-22 22:00 | 31.77586 | -86.68779 | 31093 ft | 460 kts | 354° |
| 2026-04-22 22:00 | 31.80768 | -86.69137 | 31497 ft | 459 kts | 354° |
| 2026-04-22 22:00 | 31.83948 | -86.69488 | 31920 ft | 458 kts | 354° |
| 2026-04-22 22:01 | 31.87077 | -86.69831 | 32323 ft | 456 kts | 354° |
| 2026-04-22 22:01 | 31.90240 | -86.70176 | 32722 ft | 455 kts | 354° |
| 2026-04-22 22:01 | 31.93401 | -86.70522 | 33096 ft | 454 kts | 354° |
| 2026-04-22 22:01 | 31.96546 | -86.70866 | 33471 ft | 453 kts | 354° |
| 2026-04-22 22:02 | 31.99686 | -86.71211 | 33838 ft | 452 kts | 354° |
| 2026-04-22 22:02 | 32.02812 | -86.71555 | 34181 ft | 451 kts | 354° |
| 2026-04-22 22:02 | 32.05897 | -86.71894 | 34578 ft | 447 kts | 354° |
| 2026-04-22 22:02 | 32.08986 | -86.72235 | 34944 ft | 444 kts | 354° |
| 2026-04-22 22:03 | 32.12074 | -86.72575 | 35143 ft | 446 kts | 354° |
| 2026-04-22 22:03 | 32.15167 | -86.72917 | 35333 ft | 447 kts | 354° |
| 2026-04-22 22:03 | 32.18269 | -86.73259 | 35593 ft | 447 kts | 354° |
| 2026-04-22 22:03 | 32.21374 | -86.73602 | 35892 ft | 446 kts | 354° |
| 2026-04-22 22:04 | 32.24462 | -86.73944 | 36157 ft | 445 kts | 354° |
| 2026-04-22 22:04 | 32.27515 | -86.74281 | 36389 ft | 446 kts | 354° |
| 2026-04-22 22:04 | 32.30612 | -86.74624 | 36625 ft | 446 kts | 354° |
| 2026-04-22 22:04 | 32.33694 | -86.74966 | 36983 ft | 442 kts | 354° |
| 2026-04-22 22:05 | 32.36754 | -86.75305 | 37275 ft | 440 kts | 354° |
| 2026-04-22 22:05 | 32.39817 | -86.75645 | 37445 ft | 441 kts | 354° |
| 2026-04-22 22:05 | 32.42841 | -86.75981 | 37601 ft | 443 kts | 354° |
| 2026-04-22 22:05 | 32.45920 | -86.76323 | 37828 ft | 442 kts | 354° |
| 2026-04-22 22:06 | 32.48982 | -86.76663 | 38094 ft | 441 kts | 354° |
| 2026-04-22 22:06 | 32.55099 | -86.77344 | 38118 ft | 444 kts | 354° |
| 2026-04-22 22:07 | 32.61235 | -86.78028 | 38136 ft | 439 kts | 354° |
| 2026-04-22 22:07 | 32.67266 | -86.78700 | 38125 ft | 435 kts | 354° |
| 2026-04-22 22:08 | 32.73261 | -86.79370 | 38140 ft | 431 kts | 354° |
| 2026-04-22 22:08 | 32.79251 | -86.80041 | 38134 ft | 434 kts | 354° |
| 2026-04-22 22:09 | 32.85294 | -86.80718 | 38147 ft | 441 kts | 354° |
| 2026-04-22 22:09 | 32.91413 | -86.81405 | 38142 ft | 440 kts | 354° |
| 2026-04-22 22:10 | 32.97527 | -86.82092 | 38140 ft | 439 kts | 354° |
| 2026-04-22 22:10 | 33.03583 | -86.82773 | 38151 ft | 438 kts | 354° |
| 2026-04-22 22:11 | 33.09672 | -86.83459 | 38157 ft | 438 kts | 354° |
| 2026-04-22 22:11 | 33.15696 | -86.84138 | 38163 ft | 436 kts | 354° |
| 2026-04-22 22:12 | 33.21736 | -86.84821 | 38153 ft | 434 kts | 354° |
| 2026-04-22 22:12 | 33.27769 | -86.85503 | 38169 ft | 433 kts | 354° |
| 2026-04-22 22:13 | 33.33748 | -86.86181 | 38177 ft | 432 kts | 354° |
| 2026-04-22 22:13 | 33.39749 | -86.86862 | 38170 ft | 432 kts | 354° |
| 2026-04-22 22:14 | 33.45691 | -86.87537 | 38173 ft | 431 kts | 354° |
| 2026-04-22 22:14 | 33.51674 | -86.88218 | 38171 ft | 431 kts | 354° |
| 2026-04-22 22:15 | 33.57664 | -86.88900 | 38178 ft | 431 kts | 354° |
| 2026-04-22 22:15 | 33.63625 | -86.89580 | 38171 ft | 432 kts | 354° |
| 2026-04-22 22:16 | 33.69599 | -86.89855 | 38178 ft | 432 kts | 2° |
| 2026-04-22 22:16 | 33.75598 | -86.89324 | 38161 ft | 432 kts | 3° |
| 2026-04-22 22:17 | 33.80592 | -86.88854 | 38163 ft | 432 kts | 3° |
| 2026-04-22 22:17 | 33.86600 | -86.88315 | 38162 ft | 432 kts | 3° |
| 2026-04-22 22:18 | 33.92567 | -86.87802 | 38167 ft | 431 kts | 3° |
| 2026-04-22 22:18 | 33.98563 | -86.87293 | 38157 ft | 431 kts | 3° |
| 2026-04-22 22:19 | 34.04521 | -86.86786 | 38169 ft | 430 kts | 3° |
| 2026-04-22 22:19 | 34.10502 | -86.86277 | 38164 ft | 429 kts | 3° |
| 2026-04-22 22:20 | 34.16468 | -86.85768 | 38158 ft | 429 kts | 3° |
| 2026-04-22 22:20 | 34.22398 | -86.85261 | 38170 ft | 429 kts | 3° |
| 2026-04-22 22:21 | 34.28363 | -86.84750 | 38163 ft | 428 kts | 3° |
| 2026-04-22 22:21 | 34.34278 | -86.84243 | 38168 ft | 428 kts | 3° |
| 2026-04-22 22:22 | 34.40251 | -86.83730 | 38167 ft | 429 kts | 3° |
| 2026-04-22 22:22 | 34.46172 | -86.83221 | 38150 ft | 429 kts | 2° |
| 2026-04-22 22:23 | 34.52134 | -86.82707 | 38152 ft | 428 kts | 2° |
| 2026-04-22 22:23 | 34.58067 | -86.82196 | 38144 ft | 428 kts | 2° |
| 2026-04-22 22:24 | 34.64020 | -86.81682 | 38148 ft | 428 kts | 2° |
| 2026-04-22 22:24 | 34.69979 | -86.81166 | 38153 ft | 428 kts | 2° |
| 2026-04-22 22:25 | 34.75887 | -86.80654 | 38148 ft | 428 kts | 2° |
| 2026-04-22 22:25 | 34.81848 | -86.80137 | 38133 ft | 428 kts | 2° |
| 2026-04-22 22:26 | 34.87794 | -86.79621 | 38144 ft | 428 kts | 2° |
| 2026-04-22 22:26 | 34.93718 | -86.79105 | 38150 ft | 427 kts | 2° |
| 2026-04-22 22:27 | 34.99628 | -86.78590 | 38161 ft | 427 kts | 2° |
| 2026-04-22 22:27 | 35.05569 | -86.78072 | 38158 ft | 427 kts | 2° |
| 2026-04-22 22:28 | 35.11502 | -86.77552 | 38160 ft | 427 kts | 2° |
| 2026-04-22 22:28 | 35.17401 | -86.77034 | 38149 ft | 426 kts | 2° |
| 2026-04-22 22:29 | 35.23334 | -86.76513 | 38148 ft | 427 kts | 2° |
| 2026-04-22 22:29 | 35.29223 | -86.75995 | 38141 ft | 426 kts | 2° |
| 2026-04-22 22:30 | 35.35155 | -86.75472 | 38124 ft | 426 kts | 2° |
| 2026-04-22 22:30 | 35.41078 | -86.74950 | 38137 ft | 426 kts | 2° |
| 2026-04-22 22:31 | 35.46973 | -86.74429 | 38135 ft | 426 kts | 2° |
| 2026-04-22 22:31 | 35.52907 | -86.73904 | 38124 ft | 426 kts | 2° |
| 2026-04-22 22:32 | 35.58792 | -86.73382 | 38125 ft | 426 kts | 2° |
| 2026-04-22 22:32 | 35.64716 | -86.72856 | 38137 ft | 426 kts | 2° |
| 2026-04-22 22:33 | 35.70639 | -86.72330 | 38141 ft | 426 kts | 2° |
| 2026-04-22 22:33 | 35.76532 | -86.71805 | 38136 ft | 426 kts | 2° |
| 2026-04-22 22:34 | 35.82429 | -86.71279 | 38133 ft | 426 kts | 2° |
| 2026-04-22 22:34 | 35.88365 | -86.70749 | 38133 ft | 426 kts | 2° |
| 2026-04-22 22:35 | 35.94293 | -86.70219 | 38140 ft | 426 kts | 2° |
| 2026-04-22 22:35 | 36.00176 | -86.69692 | 38134 ft | 426 kts | 2° |
| 2026-04-22 22:36 | 36.06099 | -86.69161 | 38128 ft | 426 kts | 2° |
| 2026-04-22 22:36 | 36.12013 | -86.68546 | 38121 ft | 427 kts | 8° |
| 2026-04-22 22:37 | 36.17721 | -86.66404 | 38137 ft | 431 kts | 21° |
| 2026-04-22 22:37 | 36.23203 | -86.63362 | 38134 ft | 432 kts | 21° |
| 2026-04-22 22:38 | 36.28657 | -86.60302 | 38131 ft | 432 kts | 21° |
| 2026-04-22 22:38 | 36.34161 | -86.57246 | 38134 ft | 432 kts | 21° |
| 2026-04-22 22:39 | 36.39627 | -86.54229 | 38149 ft | 432 kts | 21° |
| 2026-04-22 22:39 | 36.45127 | -86.51195 | 38135 ft | 432 kts | 21° |
| 2026-04-22 22:40 | 36.50636 | -86.48152 | 38141 ft | 432 kts | 21° |
| 2026-04-22 22:40 | 36.56100 | -86.45128 | 38138 ft | 431 kts | 21° |
| 2026-04-22 22:41 | 36.61565 | -86.42099 | 38124 ft | 432 kts | 21° |
| 2026-04-22 22:41 | 36.67055 | -86.39051 | 38123 ft | 432 kts | 21° |
| 2026-04-22 22:42 | 36.72557 | -86.35991 | 38118 ft | 432 kts | 21° |
| 2026-04-22 22:42 | 36.78018 | -86.32950 | 38116 ft | 432 kts | 21° |
| 2026-04-22 22:43 | 36.83530 | -86.29875 | 38115 ft | 432 kts | 21° |
| 2026-04-22 22:43 | 36.88997 | -86.26821 | 38111 ft | 432 kts | 21° |
| 2026-04-22 22:44 | 36.94509 | -86.23736 | 38126 ft | 432 kts | 21° |
| 2026-04-22 22:44 | 36.99976 | -86.20672 | 38117 ft | 433 kts | 21° |
| 2026-04-22 22:45 | 37.05488 | -86.17578 | 38135 ft | 433 kts | 21° |
| 2026-04-22 22:45 | 37.10988 | -86.14485 | 38115 ft | 432 kts | 21° |
| 2026-04-22 22:46 | 37.16456 | -86.11406 | 38118 ft | 431 kts | 21° |
| 2026-04-22 22:46 | 37.21902 | -86.08334 | 38114 ft | 431 kts | 21° |
| 2026-04-22 22:47 | 37.27374 | -86.05242 | 38104 ft | 430 kts | 21° |
| 2026-04-22 22:47 | 37.32846 | -86.02146 | 38102 ft | 430 kts | 21° |
| 2026-04-22 22:48 | 37.38276 | -85.99068 | 38096 ft | 430 kts | 21° |
| 2026-04-22 22:48 | 37.43740 | -85.95967 | 38105 ft | 430 kts | 21° |
| 2026-04-22 22:49 | 37.49193 | -85.92866 | 38098 ft | 429 kts | 21° |
| 2026-04-22 22:49 | 37.54602 | -85.89785 | 38091 ft | 428 kts | 21° |
| 2026-04-22 22:50 | 37.60030 | -85.86689 | 38090 ft | 428 kts | 21° |
| 2026-04-22 22:50 | 37.65444 | -85.83596 | 38106 ft | 427 kts | 21° |
| 2026-04-22 22:51 | 37.70869 | -85.80492 | 38083 ft | 427 kts | 21° |
| 2026-04-22 22:51 | 37.76289 | -85.77384 | 38096 ft | 427 kts | 21° |
| 2026-04-22 22:52 | 37.81674 | -85.74293 | 38078 ft | 427 kts | 21° |
| 2026-04-22 22:52 | 37.87094 | -85.71176 | 38084 ft | 427 kts | 21° |
| 2026-04-22 22:53 | 37.92488 | -85.68070 | 38073 ft | 427 kts | 21° |
| 2026-04-22 22:53 | 37.97917 | -85.64936 | 38074 ft | 427 kts | 21° |
| 2026-04-22 22:54 | 38.03305 | -85.61822 | 38069 ft | 427 kts | 21° |
| 2026-04-22 22:54 | 38.08687 | -85.58708 | 38069 ft | 426 kts | 21° |
| 2026-04-22 22:55 | 38.14248 | -85.56209 | 38079 ft | 422 kts | 12° |
| 2026-04-22 22:55 | 38.22729 | -85.53321 | 38072 ft | 421 kts | 12° |
| 2026-04-22 22:56 | 38.28395 | -85.51365 | 38073 ft | 421 kts | 12° |
| 2026-04-22 22:56 | 38.34068 | -85.49368 | 38071 ft | 422 kts | 12° |
| 2026-04-22 22:57 | 38.39691 | -85.47374 | 38052 ft | 422 kts | 12° |
| 2026-04-22 22:57 | 38.45364 | -85.45357 | 38050 ft | 422 kts | 12° |
| 2026-04-22 22:58 | 38.51030 | -85.43339 | 38049 ft | 422 kts | 12° |
| 2026-04-22 22:58 | 38.56673 | -85.41328 | 38067 ft | 422 kts | 12° |
| 2026-04-22 22:59 | 38.62333 | -85.39306 | 38058 ft | 421 kts | 12° |
| 2026-04-22 22:59 | 38.67954 | -85.37295 | 38074 ft | 421 kts | 12° |
| 2026-04-22 23:00 | 38.73610 | -85.35268 | 38085 ft | 420 kts | 12° |
| 2026-04-22 23:00 | 38.79247 | -85.33245 | 38083 ft | 420 kts | 12° |
| 2026-04-22 23:01 | 38.84852 | -85.31231 | 38055 ft | 419 kts | 12° |
| 2026-04-22 23:01 | 38.90450 | -85.29215 | 38040 ft | 419 kts | 12° |
| 2026-04-22 23:02 | 38.96088 | -85.27182 | 38040 ft | 419 kts | 12° |
| 2026-04-22 23:02 | 39.00760 | -85.25494 | 38043 ft | 419 kts | 12° |
| 2026-04-22 23:03 | 39.07300 | -85.23128 | 38045 ft | 419 kts | 12° |
| 2026-04-22 23:03 | 39.11974 | -85.21434 | 38041 ft | 419 kts | 12° |
| 2026-04-22 23:04 | 39.18510 | -85.19062 | 38043 ft | 419 kts | 12° |
| 2026-04-22 23:04 | 39.23211 | -85.17352 | 38043 ft | 419 kts | 12° |
| 2026-04-22 23:05 | 39.28799 | -85.15317 | 38050 ft | 419 kts | 12° |
| 2026-04-22 23:05 | 39.34500 | -85.14055 | 38059 ft | 412 kts | 356° |
| 2026-04-22 23:06 | 39.40106 | -85.15146 | 38024 ft | 410 kts | 340° |
| 2026-04-22 23:06 | 39.45471 | -85.17687 | 38040 ft | 409 kts | 339° |
| 2026-04-22 23:07 | 39.50808 | -85.20295 | 38029 ft | 410 kts | 339° |
| 2026-04-22 23:07 | 39.56138 | -85.22868 | 38031 ft | 411 kts | 339° |
| 2026-04-22 23:08 | 39.61515 | -85.25441 | 38022 ft | 411 kts | 339° |
| 2026-04-22 23:08 | 39.66851 | -85.27990 | 37658 ft | 407 kts | 339° |
| 2026-04-22 23:09 | 39.69508 | -85.29259 | 37383 ft | 403 kts | 339° |
| 2026-04-22 23:09 | 39.72139 | -85.30518 | 37129 ft | 402 kts | 339° |
| 2026-04-22 23:09 | 39.74772 | -85.31778 | 36890 ft | 404 kts | 339° |
| 2026-04-22 23:09 | 39.77429 | -85.33052 | 36634 ft | 405 kts | 339° |
| 2026-04-22 23:10 | 39.80073 | -85.34320 | 36382 ft | 406 kts | 339° |
| 2026-04-22 23:10 | 39.82707 | -85.35585 | 36134 ft | 407 kts | 339° |
| 2026-04-22 23:10 | 39.85371 | -85.36864 | 35884 ft | 408 kts | 339° |
| 2026-04-22 23:10 | 39.88049 | -85.38152 | 35636 ft | 409 kts | 339° |
| 2026-04-22 23:11 | 39.90727 | -85.39441 | 35387 ft | 410 kts | 339° |
| 2026-04-22 23:11 | 39.93411 | -85.40734 | 35163 ft | 412 kts | 339° |
| 2026-04-22 23:11 | 39.96070 | -85.42016 | 34929 ft | 412 kts | 339° |
| 2026-04-22 23:11 | 39.98769 | -85.43318 | 34662 ft | 413 kts | 339° |
| 2026-04-22 23:12 | 40.01474 | -85.44625 | 34424 ft | 414 kts | 339° |
| 2026-04-22 23:12 | 40.04193 | -85.45938 | 34183 ft | 415 kts | 339° |
| 2026-04-22 23:12 | 40.06879 | -85.47238 | 33937 ft | 416 kts | 339° |
| 2026-04-22 23:12 | 40.09609 | -85.48559 | 33674 ft | 417 kts | 339° |
| 2026-04-22 23:13 | 40.12343 | -85.49884 | 33425 ft | 418 kts | 339° |
| 2026-04-22 23:13 | 40.15075 | -85.51208 | 33155 ft | 419 kts | 339° |
| 2026-04-22 23:13 | 40.17785 | -85.52524 | 32900 ft | 420 kts | 339° |
| 2026-04-22 23:13 | 40.20537 | -85.53861 | 32643 ft | 421 kts | 339° |
| 2026-04-22 23:14 | 40.23288 | -85.55199 | 32388 ft | 422 kts | 339° |
| 2026-04-22 23:14 | 40.26052 | -85.56543 | 32131 ft | 423 kts | 339° |
| 2026-04-22 23:14 | 40.28819 | -85.57891 | 31879 ft | 424 kts | 339° |
| 2026-04-22 23:14 | 40.31549 | -85.59222 | 31633 ft | 425 kts | 339° |
| 2026-04-22 23:15 | 40.34336 | -85.60582 | 31389 ft | 430 kts | 339° |
| 2026-04-22 23:15 | 40.37165 | -85.61964 | 31159 ft | 436 kts | 339° |
| 2026-04-22 23:15 | 40.40032 | -85.63366 | 30930 ft | 442 kts | 339° |
| 2026-04-22 23:15 | 40.42914 | -85.64775 | 30680 ft | 441 kts | 339° |
| 2026-04-22 23:16 | 40.45789 | -85.66183 | 30431 ft | 438 kts | 339° |
| 2026-04-22 23:16 | 40.48633 | -85.67576 | 29795 ft | 432 kts | 339° |
| 2026-04-22 23:16 | 40.51446 | -85.68839 | 28694 ft | 434 kts | 342° |
| 2026-04-22 23:16 | 40.54377 | -85.69950 | 27375 ft | 441 kts | 344° |
| 2026-04-22 23:17 | 40.57287 | -85.70964 | 27329 ft | 423 kts | 345° |
| 2026-04-22 23:17 | 40.60176 | -85.71965 | 27163 ft | 434 kts | 344° |
| 2026-04-22 23:17 | 40.63130 | -85.73009 | 26972 ft | 446 kts | 344° |
| 2026-04-22 23:17 | 40.66159 | -85.74100 | 26778 ft | 456 kts | 344° |
| 2026-04-22 23:18 | 40.69203 | -85.75213 | 26580 ft | 460 kts | 344° |
| 2026-04-22 23:18 | 40.72295 | -85.76356 | 26361 ft | 458 kts | 343° |
| 2026-04-22 23:18 | 40.75198 | -85.77982 | 26361 ft | 453 kts | 329° |
| 2026-04-22 23:18 | 40.77689 | -85.80536 | 26368 ft | 455 kts | 317° |
| 2026-04-22 23:19 | 40.79790 | -85.83676 | 26364 ft | 460 kts | 307° |
| 2026-04-22 23:19 | 40.81439 | -85.87315 | 26382 ft | 463 kts | 301° |
| 2026-04-22 23:19 | 40.82990 | -85.91044 | 26361 ft | 463 kts | 300° |
| 2026-04-22 23:19 | 40.84535 | -85.94776 | 26367 ft | 463 kts | 301° |
| 2026-04-22 23:20 | 40.86072 | -85.98471 | 26370 ft | 463 kts | 301° |
| 2026-04-22 23:20 | 40.87634 | -86.02198 | 26371 ft | 462 kts | 301° |
| 2026-04-22 23:20 | 40.89206 | -86.05927 | 26255 ft | 463 kts | 301° |
| 2026-04-22 23:20 | 40.90761 | -86.09604 | 25995 ft | 462 kts | 301° |
| 2026-04-22 23:21 | 40.92334 | -86.13319 | 25754 ft | 461 kts | 301° |
| 2026-04-22 23:21 | 40.93899 | -86.17017 | 25524 ft | 459 kts | 301° |
| 2026-04-22 23:21 | 40.95461 | -86.20710 | 25274 ft | 458 kts | 301° |
| 2026-04-22 23:21 | 40.96989 | -86.24329 | 25238 ft | 455 kts | 301° |
| 2026-04-22 23:22 | 40.98539 | -86.28004 | 25203 ft | 456 kts | 301° |
| 2026-04-22 23:22 | 41.00092 | -86.31691 | 24952 ft | 460 kts | 301° |
| 2026-04-22 23:22 | 41.01646 | -86.35386 | 24717 ft | 457 kts | 301° |
| 2026-04-22 23:22 | 41.03186 | -86.39055 | 24487 ft | 456 kts | 301° |
| 2026-04-22 23:23 | 41.04731 | -86.42739 | 24258 ft | 455 kts | 301° |
| 2026-04-22 23:23 | 41.06248 | -86.46362 | 24034 ft | 454 kts | 301° |
| 2026-04-22 23:23 | 41.07783 | -86.50030 | 23815 ft | 454 kts | 301° |
| 2026-04-22 23:23 | 41.09314 | -86.53694 | 23588 ft | 453 kts | 301° |
| 2026-04-22 23:24 | 41.10842 | -86.57357 | 23314 ft | 452 kts | 301° |
| 2026-04-22 23:24 | 41.12349 | -86.60971 | 23043 ft | 451 kts | 301° |
| 2026-04-22 23:24 | 41.13865 | -86.64611 | 22777 ft | 450 kts | 301° |
| 2026-04-22 23:24 | 41.15378 | -86.68251 | 22512 ft | 448 kts | 301° |
| 2026-04-22 23:25 | 41.16879 | -86.71864 | 22242 ft | 446 kts | 301° |
| 2026-04-22 23:25 | 41.18371 | -86.75463 | 21971 ft | 441 kts | 301° |
| 2026-04-22 23:25 | 41.19836 | -86.78997 | 21091 ft | 442 kts | 301° |
| 2026-04-22 23:25 | 41.21310 | -86.82561 | 20254 ft | 438 kts | 300° |
| 2026-04-22 23:26 | 41.22775 | -86.86104 | 19404 ft | 434 kts | 300° |
| 2026-04-22 23:26 | 41.24201 | -86.89559 | 18579 ft | 427 kts | 300° |
| 2026-04-22 23:26 | 41.25638 | -86.93045 | 17648 ft | 421 kts | 300° |
| 2026-04-22 23:26 | 41.27019 | -86.96398 | 16748 ft | 415 kts | 300° |
| 2026-04-22 23:27 | 41.28394 | -86.99741 | 15935 ft | 408 kts | 300° |
| 2026-04-22 23:27 | 41.29748 | -87.03036 | 15113 ft | 402 kts | 300° |
| 2026-04-22 23:27 | 41.31077 | -87.06273 | 14304 ft | 396 kts | 300° |
| 2026-04-22 23:27 | 41.32378 | -87.09445 | 13482 ft | 392 kts | 300° |
| 2026-04-22 23:28 | 41.33678 | -87.12616 | 12621 ft | 387 kts | 300° |
| 2026-04-22 23:28 | 41.34957 | -87.15741 | 11811 ft | 382 kts | 300° |
| 2026-04-22 23:28 | 41.36249 | -87.18796 | 11368 ft | 369 kts | 305° |
| 2026-04-22 23:28 | 41.37919 | -87.21237 | 11217 ft | 347 kts | 319° |
| 2026-04-22 23:29 | 41.39693 | -87.23297 | 11082 ft | 329 kts | 320° |
| 2026-04-22 23:29 | 41.41356 | -87.25230 | 11003 ft | 313 kts | 320° |
| 2026-04-22 23:29 | 41.42978 | -87.27132 | 11001 ft | 307 kts | 319° |
| 2026-04-22 23:29 | 41.44578 | -87.29026 | 11005 ft | 308 kts | 319° |
| 2026-04-22 23:30 | 41.46179 | -87.30934 | 11003 ft | 309 kts | 319° |
| 2026-04-22 23:30 | 41.47763 | -87.32831 | 10996 ft | 309 kts | 319° |
| 2026-04-22 23:30 | 41.49365 | -87.34752 | 11021 ft | 308 kts | 319° |
| 2026-04-22 23:30 | 41.50994 | -87.36611 | 11025 ft | 308 kts | 324° |
| 2026-04-22 23:31 | 41.52754 | -87.38239 | 11033 ft | 307 kts | 327° |
| 2026-04-22 23:31 | 41.54547 | -87.39794 | 11027 ft | 307 kts | 328° |
| 2026-04-22 23:31 | 41.56340 | -87.41346 | 11029 ft | 307 kts | 328° |
| 2026-04-22 23:31 | 41.58128 | -87.42913 | 11028 ft | 307 kts | 327° |
| 2026-04-22 23:32 | 41.59911 | -87.44496 | 11030 ft | 307 kts | 327° |
| 2026-04-22 23:32 | 41.61670 | -87.46069 | 11028 ft | 308 kts | 327° |
| 2026-04-22 23:32 | 41.63452 | -87.47669 | 11027 ft | 308 kts | 327° |
| 2026-04-22 23:32 | 41.65230 | -87.49267 | 11029 ft | 308 kts | 327° |
| 2026-04-22 23:33 | 41.66936 | -87.51007 | 11028 ft | 309 kts | 321° |
| 2026-04-22 23:33 | 41.68561 | -87.52903 | 11031 ft | 309 kts | 320° |
| 2026-04-22 23:33 | 41.70181 | -87.54802 | 11027 ft | 309 kts | 320° |
| 2026-04-22 23:33 | 41.71791 | -87.56662 | 11024 ft | 309 kts | 320° |
| 2026-04-22 23:34 | 41.73427 | -87.58536 | 11001 ft | 309 kts | 321° |
| 2026-04-22 23:34 | 41.75083 | -87.60399 | 11009 ft | 309 kts | 321° |
| 2026-04-22 23:34 | 41.76743 | -87.62254 | 11005 ft | 309 kts | 321° |
| 2026-04-22 23:34 | 41.78368 | -87.64069 | 10930 ft | 306 kts | 321° |
| 2026-04-22 23:35 | 41.79995 | -87.65891 | 10617 ft | 301 kts | 321° |
| 2026-04-22 23:35 | 41.81608 | -87.67699 | 10208 ft | 302 kts | 321° |
| 2026-04-22 23:35 | 41.83206 | -87.69557 | 9903 ft | 304 kts | 315° |
| 2026-04-22 23:35 | 41.84449 | -87.71836 | 9583 ft | 307 kts | 304° |
| 2026-04-22 23:36 | 41.85589 | -87.74266 | 9245 ft | 309 kts | 304° |
| 2026-04-22 23:36 | 41.86755 | -87.76706 | 8917 ft | 309 kts | 304° |
| 2026-04-22 23:36 | 41.87900 | -87.79155 | 8575 ft | 309 kts | 298° |
| 2026-04-22 23:36 | 41.88470 | -87.81902 | 8245 ft | 312 kts | 276° |
| 2026-04-22 23:37 | 41.88515 | -87.84789 | 7931 ft | 304 kts | 271° |
| 2026-04-22 23:37 | 41.88487 | -87.87573 | 7605 ft | 293 kts | 271° |
| 2026-04-22 23:37 | 41.88489 | -87.89873 | 7345 ft | 286 kts | 271° |
| 2026-04-22 23:37 | 41.88471 | -87.92527 | 7061 ft | 282 kts | 270° |
| 2026-04-22 23:38 | 41.88466 | -87.95037 | 7081 ft | 285 kts | 271° |
| 2026-04-22 23:38 | 41.88465 | -87.97687 | 7016 ft | 287 kts | 271° |
| 2026-04-22 23:38 | 41.88431 | -88.00357 | 7004 ft | 283 kts | 269° |
| 2026-04-22 23:38 | 41.88343 | -88.03007 | 6822 ft | 286 kts | 268° |
| 2026-04-22 23:39 | 41.88243 | -88.05674 | 6504 ft | 282 kts | 268° |
| 2026-04-22 23:39 | 41.88147 | -88.08244 | 6183 ft | 275 kts | 267° |
| 2026-04-22 23:39 | 41.88054 | -88.10772 | 5854 ft | 266 kts | 266° |
| 2026-04-22 23:39 | 41.87967 | -88.13221 | 5509 ft | 258 kts | 266° |
| 2026-04-22 23:40 | 41.87885 | -88.15559 | 5230 ft | 249 kts | 266° |
| 2026-04-22 23:40 | 41.87806 | -88.17858 | 4913 ft | 242 kts | 266° |
| 2026-04-22 23:40 | 41.87729 | -88.20093 | 4585 ft | 238 kts | 265° |
| 2026-04-22 23:40 | 41.87653 | -88.22298 | 4250 ft | 232 kts | 267° |
| 2026-04-22 23:41 | 41.87994 | -88.24337 | 4008 ft | 226 kts | 299° |
| 2026-04-22 23:41 | 41.89127 | -88.25758 | 3986 ft | 228 kts | 333° |
| 2026-04-22 23:41 | 41.90691 | -88.26219 | 4007 ft | 232 kts | 353° |
| 2026-04-22 23:41 | 41.92324 | -88.26334 | 3993 ft | 235 kts | 355° |
| 2026-04-22 23:42 | 41.93956 | -88.26325 | 3975 ft | 235 kts | 8° |
| 2026-04-22 23:42 | 41.95412 | -88.25397 | 3975 ft | 234 kts | 43° |
| 2026-04-22 23:42 | 41.96273 | -88.23601 | 3991 ft | 233 kts | 73° |
| 2026-04-22 23:42 | 41.96399 | -88.21449 | 3986 ft | 229 kts | 102° |
| 2026-04-22 23:43 | 41.96076 | -88.19428 | 3978 ft | 212 kts | 105° |
| 2026-04-22 23:43 | 41.95864 | -88.17533 | 3970 ft | 203 kts | 91° |
| 2026-04-22 23:43 | 41.95896 | -88.15627 | 3945 ft | 205 kts | 91° |
| 2026-04-22 23:43 | 41.95919 | -88.13723 | 3727 ft | 206 kts | 92° |
| 2026-04-22 23:44 | 41.95857 | -88.11819 | 3454 ft | 202 kts | 98° |
| 2026-04-22 23:44 | 41.95739 | -88.09974 | 3199 ft | 192 kts | 98° |
| 2026-04-22 23:44 | 41.95673 | -88.08226 | 2904 ft | 184 kts | 89° |
| 2026-04-22 23:44 | 41.95711 | -88.06505 | 2657 ft | 181 kts | 91° |
| 2026-04-22 23:45 | 41.95703 | -88.04849 | 2380 ft | 170 kts | 91° |
| 2026-04-22 23:45 | 41.95696 | -88.03364 | 2207 ft | 153 kts | 91° |
| 2026-04-22 23:45 | 41.95690 | -88.02002 | 2014 ft | 140 kts | 90° |
| 2026-04-22 23:45 | 41.95693 | -88.00684 | 1833 ft | 141 kts | 90° |
| 2026-04-22 23:46 | 41.95687 | -87.99397 | 1665 ft | 138 kts | 90° |
| 2026-04-22 23:46 | 41.95701 | -87.98111 | 1510 ft | 136 kts | 89° |
| 2026-04-22 23:46 | 41.95704 | -87.96844 | 1294 ft | 134 kts | 88° |
| 2026-04-22 23:46 | 41.95714 | -87.95601 | 1132 ft | 131 kts | 88° |
| 2026-04-22 23:47 | 41.95713 | -87.94416 | 929 ft | 125 kts | 88° |
| 2026-04-22 23:47 | 41.95721 | -87.93269 | 750 ft | 120 kts | 89° |
| 2026-04-22 23:47 | 41.95725 | -87.92158 | 668 ft | 109 kts | 92° |
| 2026-04-22 23:47 | 41.95725 | -87.91436 | 670 ft | 46 kts | 88° |
| 2026-04-22 23:48 | 41.95725 | -87.91049 | 667 ft | 43 kts | 90° |
| 2026-04-22 23:48 | 41.95769 | -87.90673 | 664 ft | 39 kts | 61° |
| 2026-04-22 23:48 | 41.95862 | -87.90366 | 668 ft | 34 kts | 89° |
| 2026-04-22 23:48 | 41.95863 | -87.90065 | 668 ft | 30 kts | 89° |
| 2026-04-22 23:49 | 41.95863 | -87.89793 | 668 ft | 28 kts | 90° |
| 2026-04-22 23:49 | 41.95906 | -87.89558 | 668 ft | 26 kts | 40° |
| 2026-04-22 23:49 | 41.96037 | -87.89405 | 667 ft | 24 kts | 42° |
| 2026-04-22 23:49 | 41.96159 | -87.89257 | 666 ft | 23 kts | 42° |
| 2026-04-22 23:50 | 41.96238 | -87.89163 | 668 ft | 22 kts | 41° |
| 2026-04-22 23:50 | 41.96354 | -87.89027 | 668 ft | 22 kts | 41° |
| 2026-04-22 23:50 | 41.96532 | -87.88816 | 668 ft | 31 kts | 41° |
| 2026-04-22 23:50 | 41.96647 | -87.88680 | 668 ft | 32 kts | 41° |
| 2026-04-22 23:51 | 41.96792 | -87.88557 | 667 ft | 9 kts | 25° |
| 2026-04-22 23:51 | 41.96807 | -87.88547 | 665 ft | 0 kts | 25° |
| 2026-04-22 23:51 | 41.96819 | -87.88540 | 667 ft | 7 kts | 25° |
| 2026-04-22 23:51 | 41.96906 | -87.88484 | 667 ft | 20 kts | 26° |
| 2026-04-22 23:52 | 41.97049 | -87.88446 | 668 ft | 18 kts | 359° |
| 2026-04-22 23:52 | 41.97167 | -87.88453 | 666 ft | 17 kts | 336° |
| 2026-04-22 23:52 | 41.97195 | -87.88593 | 668 ft | 17 kts | 270° |
| 2026-04-22 23:52 | 41.97194 | -87.88790 | 668 ft | 25 kts | 270° |
| 2026-04-22 23:53 | 41.97195 | -87.89038 | 668 ft | 28 kts | 270° |
| 2026-04-22 23:53 | 41.97194 | -87.89297 | 668 ft | 27 kts | 270° |
| 2026-04-22 23:53 | 41.97207 | -87.89520 | 666 ft | 20 kts | 303° |
| 2026-04-22 23:53 | 41.97305 | -87.89637 | 668 ft | 15 kts | 278° |
| 2026-04-22 23:54 | 41.97263 | -87.89749 | 668 ft | 14 kts | 241° |
| 2026-04-22 23:54 | 41.97208 | -87.89909 | 668 ft | 23 kts | 259° |
| 2026-04-22 23:54 | 41.97204 | -87.90163 | 668 ft | 32 kts | 269° |
| 2026-04-22 23:54 | 41.97208 | -87.90470 | 668 ft | 33 kts | 273° |
| 2026-04-22 23:55 | 41.97245 | -87.90746 | 667 ft | 23 kts | 300° |
| 2026-04-22 23:55 | 41.97328 | -87.90872 | 668 ft | 15 kts | 318° |
| 2026-04-22 23:55 | 41.97396 | -87.90848 | 668 ft | 7 kts | 24° |
| 2026-04-22 23:55 | 41.97419 | -87.90851 | 668 ft | 3 kts | 353° |
| 2026-04-22 23:56 | 41.97423 | -87.90851 | 668 ft | 0 kts | 353° |